Time;durP1;ratioP1;P1;durP2;ratioP2;P2;SDS_P1;SDS_P2;PMS_P1;PMS_P2;Temp;Humidity;BMP_temperature;BMP_pressure;BME280_temperature;BME280_humidity;BME280_pressure;Samples;Min_cycle;Max_cycle;Signal;HPM_P1;HPM_P2
2023/01/27 03:20:31;;;;;;;;;;;;;;;2.29;100.00;99941.13;4997102;28;19957;-83
2023/01/27 03:22:56;;;;;;;;;;;;;;;2.33;100.00;99944.56;4997057;28;19925;-84
2023/01/27 03:25:21;;;;;;;;;;;;;;;2.80;100.00;99935.50;4979402;28;20384;-83
2023/01/27 03:27:47;;;;;;;;;;;;;;;3.20;100.00;99939.50;4996990;28;20012;-81
2023/01/27 03:30:12;;;;;;;;;;;;;;;3.56;100.00;99937.38;4996743;28;19917;-82
2023/01/27 03:32:45;;;;;;;;;;;;;;;3.81;100.00;99928.31;4978159;28;20061;-83
2023/01/27 03:35:11;;;;;;;;;;;;;;;4.00;100.00;99935.91;4996797;28;19925;-82
2023/01/27 03:48:33;;;;;;;;;;;;;;;4.57;100.00;99944.72;4994084;28;19972;-82
2023/01/27 03:50:59;;;;;;;;;;;;;;;4.61;100.00;99936.78;4996374;28;19918;-82
2023/01/27 03:53:24;;;;;;;;;;;;;;;4.69;100.00;99934.00;4978996;28;19917;-82
2023/01/27 03:55:49;;;;;;;;;;;;;;;4.74;100.00;99937.44;4996452;28;19917;-82
2023/01/27 03:58:22;;;;;;;;;;;;;;;4.80;100.00;99937.31;4996364;28;19918;-83
2023/01/27 04:00:52;;;;;;;;;;;;;;;4.84;100.00;99938.16;4978931;28;19918;-84
2023/01/27 04:08:50;;;;;;;;;;;;;;;4.95;100.00;99937.97;4996462;28;19924;-82
2023/01/27 04:14:00;;;;;;;;;;;;;;;5.03;100.00;99928.19;4995941;28;19925;-82
2023/01/27 04:16:27;;;;;;;;;;;;;;;5.07;100.00;99936.00;4996054;28;20369;-84
2023/01/27 04:18:53;;;;;;;;;;;;;;;5.12;100.00;99928.00;4989072;28;19921;-84
2023/01/27 04:21:18;;;;;;;;;;;;;;;5.15;100.00;99930.59;5015528;28;19921;-83
2023/01/27 04:23:43;;;;;;;;;;;;;;;5.17;100.00;99926.19;5035322;28;19921;-86
2023/01/27 04:26:08;;;;;;;;;;;;;;;5.20;100.00;99926.13;5017293;28;19918;-86
2023/01/27 04:28:33;;;;;;;;;;;;;;;5.22;100.00;99924.34;5035105;28;20280;-86
2023/01/27 08:54:29;;;;;;;;;;;;;;;2.65;100.00;100113.53;5053245;28;19967;-84
2023/01/27 08:56:54;;;;;;;;;;;;;;;2.66;100.00;100116.16;5053826;28;19964;-85
2023/01/27 08:59:19;;;;;;;;;;;;;;;2.63;100.00;100113.59;5053746;28;19928;-86
2023/01/27 09:01:44;;;;;;;;;;;;;;;2.63;100.00;100126.66;5053494;28;19967;-85
2023/01/27 09:04:10;;;;;;;;;;;;;;;2.60;100.00;100121.44;5054007;28;19928;-85
2023/01/27 09:06:35;;;;;;;;;;;;;;;2.60;100.00;100121.44;5034556;28;19928;-85
2023/01/27 09:09:09;;;;;;;;;;;;;;;2.55;100.00;100115.34;5051949;28;19920;-85
2023/01/27 09:11:35;;;;;;;;;;;;;;;2.51;100.00;100116.25;5036364;28;20379;-83
2023/01/27 09:14:01;;;;;;;;;;;;;;;2.59;100.00;100124.94;5052415;28;19959;-84
2023/01/27 09:16:26;;;;;;;;;;;;;;;2.53;100.00;100130.19;5054104;28;19952;-86
2023/01/27 09:18:51;;;;;;;;;;;;;;;2.53;100.00;100130.19;5051989;28;20014;-85
2023/01/27 09:21:17;;;;;;;;;;;;;;;2.55;100.00;100144.13;5052534;28;19923;-85
2023/01/27 09:23:42;;;;;;;;;;;;;;;2.53;100.00;100133.66;5053010;28;19935;-82
2023/01/27 09:26:07;;;;;;;;;;;;;;;2.47;100.00;100140.66;5054012;28;19924;-88
2023/01/27 09:28:32;;;;;;;;;;;;;;;2.41;100.00;100143.31;5035364;28;19928;-86
2023/01/27 09:30:58;;;;;;;;;;;;;;;2.38;100.00;100145.94;5053966;28;19920;-83
2023/01/27 09:33:24;;;;;;;;;;;;;;;2.38;100.00;100151.16;5052829;28;20012;-84
2023/01/27 09:36:25;;;;;;;;;;;;;;;2.48;100.00;100150.25;5033883;28;19999;-81
2023/01/27 09:38:54;;;;;;;;;;;;;;;2.41;100.00;100148.53;4976201;28;19926;-82
2023/01/27 09:41:51;;;;;;;;;;;;;;;2.39;100.00;100153.78;5038154;28;20012;-86
2023/01/27 09:44:16;;;;;;;;;;;;;;;2.38;100.00;100159.91;4963489;28;19986;-85
2023/01/27 09:47:00;;;;;;;;;;;;;;;2.36;100.00;100159.91;5032082;28;19987;-86
2023/01/27 09:49:28;;;;;;;;;;;;;;;2.39;100.00;100164.22;5033593;28;19921;-87
2023/01/27 09:52:10;;;;;;;;;;;;;;;2.38;100.00;100161.63;5052847;28;19920;-85
2023/01/27 09:54:48;;;;;;;;;;;;;;;2.36;100.00;100165.13;5052374;28;19920;-83
2023/01/27 09:57:28;;;;;;;;;;;;;;;2.29;100.00;100162.53;5051435;28;20032;-86
2023/01/27 10:00:06;;;;;;;;;;;;;;;2.64;100.00;100159.78;5050949;28;20291;-82
2023/01/27 10:02:50;;;;;;;;;;;;;;;2.99;100.00;100177.06;5050464;28;20304;-84
2023/01/27 10:05:18;;;;;;;;;;;;;;;3.43;100.00;100168.03;5052034;28;20303;-84
2023/01/27 10:08:09;;;;;;;;;;;;;;;3.76;100.00;100171.25;5035179;28;19924;-86
2023/01/27 10:10:41;;;;;;;;;;;;;;;3.99;100.00;100171.06;5037251;28;20335;-87
2023/01/27 10:13:16;;;;;;;;;;;;;;;4.14;100.00;100171.78;5053100;28;19927;-85
2023/01/27 10:15:47;;;;;;;;;;;;;;;4.27;100.00;100165.50;5033070;28;19919;-90
2023/01/27 10:18:29;;;;;;;;;;;;;;;4.36;100.00;100162.78;5053069;28;20024;-83
2023/01/27 10:21:13;;;;;;;;;;;;;;;4.48;100.00;100159.16;5049868;28;19925;-82
2023/01/27 10:23:53;;;;;;;;;;;;;;;4.56;100.00;100164.28;5033197;28;19921;-83
2023/01/27 10:26:30;;;;;;;;;;;;;;;4.64;100.00;100179.97;5025114;28;19921;-84
2023/01/27 10:29:16;;;;;;;;;;;;;;;4.69;100.00;100165.00;5050927;28;20015;-86
2023/01/27 10:31:47;;;;;;;;;;;;;;;4.76;100.00;100163.19;5034676;28;19917;-83
2023/01/27 10:34:22;;;;;;;;;;;;;;;4.81;100.00;100164.84;5034101;28;19963;-84
2023/01/27 10:36:59;;;;;;;;;;;;;;;4.86;100.00;100157.78;5052402;28;19925;-84
2023/01/27 10:39:51;;;;;;;;;;;;;;;4.90;100.00;100164.75;5050282;28;19959;-83
2023/01/27 10:42:16;;;;;;;;;;;;;;;4.94;100.00;100159.44;5033685;28;20338;-83
2023/01/27 10:44:53;;;;;;;;;;;;;;;4.98;100.00;100154.13;5052869;28;19967;-86
2023/01/27 10:47:37;;;;;;;;;;;;;;;5.02;100.00;100149.69;5049908;28;20368;-83
2023/01/27 10:50:08;;;;;;;;;;;;;;;5.05;100.00;100152.28;5051647;28;19967;-84
2023/01/27 10:52:36;;;;;;;;;;;;;;;5.09;100.00;100143.47;5051058;28;19921;-83
2023/01/27 10:55:15;;;;;;;;;;;;;;;5.12;100.00;100153.91;5052153;28;19975;-83
2023/01/27 10:57:44;;;;;;;;;;;;;;;5.16;100.00;100150.38;5052068;28;20267;-84
2023/01/27 11:00:28;;;;;;;;;;;;;;;5.20;100.00;100156.44;5055889;28;19924;-84
2023/01/27 11:03:05;;;;;;;;;;;;;;;5.21;100.00;100159.03;5036962;28;20334;-83
2023/01/27 11:05:33;;;;;;;;;;;;;;;5.22;100.00;100155.53;5055233;28;19917;-86
2023/01/27 11:08:04;;;;;;;;;;;;;;;5.27;100.00;100151.06;5056537;28;19927;-83
2023/01/27 11:11:42;;;;;;;;;;;;;;;5.31;100.00;100154.50;5038591;28;20015;-86
2023/01/27 11:13:24;;;;;;;;;;;;;;;5.74;100.00;100152.94;5054481;28;19921;-83
2023/01/27 11:15:50;;;;;;;;;;;;;;;5.93;100.00;100159.63;5056491;28;19927;-83
2023/01/27 11:18:19;;;;;;;;;;;;;;;5.85;100.00;100144.88;5036951;28;19921;-81
2023/01/27 11:20:48;;;;;;;;;;;;;;;5.62;100.00;100141.75;5055107;28;19916;-81
2023/01/27 11:23:21;;;;;;;;;;;;;;;5.54;100.00;100137.53;5055082;28;19921;-82
2023/01/27 11:25:55;;;;;;;;;;;;;;;5.50;100.00;100143.72;5037444;28;19944;-81
2023/01/27 11:28:38;;;;;;;;;;;;;;;5.47;100.00;100142.00;5054504;28;19920;-82
2023/01/27 11:31:24;;;;;;;;;;;;;;;5.44;100.00;100140.31;5056084;28;19939;-82
2023/01/27 11:34:08;;;;;;;;;;;;;;;5.42;100.00;100134.19;5001331;28;19921;-83
2023/01/27 11:36:33;;;;;;;;;;;;;;;5.41;100.00;100123.72;5035971;28;19921;-81
2023/01/27 11:39:03;;;;;;;;;;;;;;;5.44;100.00;100128.91;5054185;28;19928;-82
2023/01/27 11:41:30;;;;;;;;;;;;;;;5.44;100.00;100128.91;5054021;28;19924;-81
2023/01/27 11:43:56;;;;;;;;;;;;;;;5.43;100.00;100128.03;5035554;28;19942;-82
2023/01/27 11:46:22;;;;;;;;;;;;;;;5.42;100.00;100130.69;5052187;28;20439;-81
2023/01/27 11:48:49;;;;;;;;;;;;;;;5.44;100.00;100128.91;5055026;28;19951;-81
2023/01/27 11:51:22;;;;;;;;;;;;;;;5.45;100.00;100126.25;5036854;28;19970;-81
2023/01/27 11:54:06;;;;;;;;;;;;;;;5.43;100.00;100128.03;5054072;28;19925;-82
2023/01/27 11:56:32;;;;;;;;;;;;;;;5.44;100.00;100123.66;5053914;28;20015;-82
2023/01/27 11:59:02;;;;;;;;;;;;;;;5.46;100.00;100121.88;5036521;28;19913;-82
2023/01/27 12:01:47;;;;;;;;;;;;;;;5.48;100.00;100125.34;5055774;28;20024;-82
2023/01/27 12:04:18;;;;;;;;;;;;;;;5.49;100.00;100124.47;5038076;28;19920;-82
2023/01/27 12:06:46;;;;;;;;;;;;;;;5.49;100.00;100116.56;5036145;28;19962;-82
2023/01/27 12:09:40;;;;;;;;;;;;;;;5.53;100.00;100122.63;5054297;28;20011;-83
2023/01/27 12:12:19;;;;;;;;;;;;;;;5.52;100.00;100116.53;5033949;28;19986;-83
2023/01/27 12:14:54;;;;;;;;;;;;;;;5.53;100.00;100120.00;5037437;28;19916;-81
2023/01/27 12:17:24;;;;;;;;;;;;;;;5.55;100.00;100111.22;5054489;28;19956;-82
2023/01/27 12:19:50;;;;;;;;;;;;;;;5.56;100.00;100112.94;5052343;28;19936;-81
2023/01/27 12:22:23;;;;;;;;;;;;;;;5.56;100.00;100112.94;5032172;28;19921;-83
2023/01/27 12:24:51;;;;;;;;;;;;;;;5.57;100.00;100117.31;5052191;28;20383;-84
2023/01/27 12:27:22;;;;;;;;;;;;;;;5.59;100.00;100115.50;5054206;28;19921;-83
2023/01/27 12:29:53;;;;;;;;;;;;;;;5.59;100.00;100107.63;5055117;28;19927;-86
2023/01/27 12:32:20;;;;;;;;;;;;;;;5.60;100.00;100109.38;5055127;28;19923;-83
2023/01/27 12:34:49;;;;;;;;;;;;;;;5.60;100.00;100109.38;5052741;28;20043;-84
2023/01/27 12:37:20;;;;;;;;;;;;;;;5.61;100.00;100112.84;5037090;28;19920;-84
2023/01/27 12:39:51;;;;;;;;;;;;;;;5.62;100.00;100110.19;5052810;28;20393;-82
2023/01/27 12:42:36;;;;;;;;;;;;;;;5.63;100.00;100109.31;5052838;28;19946;-83
2023/01/27 12:45:18;;;;;;;;;;;;;;;5.64;100.00;100099.66;5029266;28;20368;-83
2023/01/27 12:47:54;;;;;;;;;;;;;;;5.65;100.00;100096.16;5054679;28;20019;-83
2023/01/27 12:50:21;;;;;;;;;;;;;;;5.69;100.00;100096.94;5052563;28;19925;-82
2023/01/27 12:52:53;;;;;;;;;;;;;;;5.67;100.00;100098.75;5029419;28;19948;-80
2023/01/27 12:55:29;;;;;;;;;;;;;;;5.68;100.00;100087.31;5044250;28;19916;-80
2023/01/27 12:57:54;;;;;;;;;;;;;;;5.67;100.00;100086.47;5054490;28;19917;-82
2023/01/27 13:00:19;;;;;;;;;;;;;;;5.70;100.00;100090.81;5036534;28;20416;-82
2023/01/27 13:02:46;;;;;;;;;;;;;;;5.70;100.00;100093.44;5036520;28;19917;-83
2023/01/27 13:05:21;;;;;;;;;;;;;;;5.71;100.00;100092.53;5052123;28;19928;-85
2023/01/27 13:07:49;;;;;;;;;;;;;;;5.71;100.00;100097.78;5035754;28;19928;-84
2023/01/27 13:10:19;;;;;;;;;;;;;;;5.71;100.00;100090.78;5054266;28;19921;-82
2023/01/27 13:12:49;;;;;;;;;;;;;;;5.72;100.00;100092.50;5054322;28;19993;-84
2023/01/27 13:15:15;;;;;;;;;;;;;;;5.74;100.00;100100.34;5035406;28;19921;-82
2023/01/27 13:17:46;;;;;;;;;;;;;;;5.74;100.00;100089.84;5054073;28;19916;-85
2023/01/27 13:20:35;;;;;;;;;;;;;;;5.74;100.00;100090.69;5052598;28;19921;-85
2023/01/27 13:23:13;;;;;;;;;;;;;;;5.75;100.00;100086.34;5039844;28;19928;-83
2023/01/27 13:26:13;;;;;;;;;;;;;;;5.77;100.00;100095.03;5053811;28;19921;-83
2023/01/27 13:28:38;;;;;;;;;;;;;;;5.74;100.00;100095.09;4952404;29;20020;-84
2023/01/27 13:31:11;;;;;;;;;;;;;;;5.77;100.00;100102.94;5016781;28;20008;-84
2023/01/27 13:33:53;;;;;;;;;;;;;;;5.76;100.00;100102.06;5039116;28;20432;-83
2023/01/27 13:36:36;;;;;;;;;;;;;;;5.75;100.00;100091.59;5052704;28;20299;-83
2023/01/27 13:39:10;;;;;;;;;;;;;;;5.77;100.00;100100.31;5053293;28;19921;-83
2023/01/27 13:41:41;;;;;;;;;;;;;;;5.80;100.00;100101.09;5034370;28;20299;-83
2023/01/27 13:44:18;;;;;;;;;;;;;;;5.79;100.00;100102.03;5053567;28;19923;-84
2023/01/27 13:46:44;;;;;;;;;;;;;;;5.81;100.00;100104.63;5053443;28;19917;-84
2023/01/27 13:49:23;;;;;;;;;;;;;;;5.83;100.00;100105.47;5034899;28;20337;-84
2023/01/27 13:51:49;;;;;;;;;;;;;;;5.81;100.00;100102.00;5052602;28;19921;-84
2023/01/27 13:54:14;;;;;;;;;;;;;;;5.85;100.00;100113.31;5035450;28;20283;-83
2023/01/27 13:56:59;;;;;;;;;;;;;;;5.83;100.00;100105.47;5052301;28;20007;-85
2023/01/27 13:59:52;;;;;;;;;;;;;;;5.85;100.00;100114.19;5033544;28;19921;-83
2023/01/27 14:02:32;;;;;;;;;;;;;;;5.87;100.00;100122.03;5048839;28;19921;-82
2023/01/27 14:05:20;;;;;;;;;;;;;;;5.84;100.00;100109.84;5034264;28;19920;-82
2023/01/27 14:08:04;;;;;;;;;;;;;;;5.85;100.00;100111.53;5053071;28;19923;-80
2023/01/27 14:10:48;;;;;;;;;;;;;;;5.86;100.00;100110.66;5051941;28;19986;-85
2023/01/27 14:13:28;;;;;;;;;;;;;;;5.86;100.00;100112.44;5053129;28;19963;-84
2023/01/27 14:16:06;;;;;;;;;;;;;;;5.86;100.00;100115.94;5035291;28;19943;-82
2023/01/27 14:18:48;;;;;;;;;;;;;;;5.86;100.00;100110.66;5053149;28;20007;-82
2023/01/27 14:21:16;;;;;;;;;;;;;;;5.87;100.00;100117.66;5050682;28;19917;-83
2023/01/27 14:24:00;;;;;;;;;;;;;;;5.87;100.00;100114.16;5035301;28;19921;-83
2023/01/27 14:26:31;;;;;;;;;;;;;;;5.90;100.00;100114.97;5053011;28;19940;-83
2023/01/27 14:29:19;;;;;;;;;;;;;;;5.89;100.00;100118.50;5053017;28;19917;-83
2023/01/27 14:32:04;;;;;;;;;;;;;;;5.92;100.00;100121.06;5051450;28;20383;-83
2023/01/27 14:34:33;;;;;;;;;;;;;;;5.93;100.00;100124.56;5051687;28;19932;-83
2023/01/27 14:37:18;;;;;;;;;;;;;;;5.94;100.00;100123.69;5052916;28;19916;-83
2023/01/27 14:40:02;;;;;;;;;;;;;;;5.93;100.00;100125.41;5051112;28;19939;-83
2023/01/27 14:42:36;;;;;;;;;;;;;;;5.93;100.00;100128.06;5051885;28;20303;-83
2023/01/27 14:45:12;;;;;;;;;;;;;;;5.95;100.00;100130.66;5033747;28;19916;-83
2023/01/27 14:47:37;;;;;;;;;;;;;;;5.95;100.00;100134.16;5052900;28;19924;-83
2023/01/27 14:50:21;;;;;;;;;;;;;;;5.97;100.00;100131.56;5051602;28;19962;-83
2023/01/27 14:52:50;;;;;;;;;;;;;;;5.96;100.00;100135.91;5041333;28;20013;-83
2023/01/27 14:55:23;;;;;;;;;;;;;;;5.97;100.00;100144.69;5052830;28;19924;-83
2023/01/27 14:57:55;;;;;;;;;;;;;;;5.97;100.00;100135.03;5034984;28;19924;-83
2023/01/27 15:00:32;;;;;;;;;;;;;;;5.98;100.00;100152.56;5050531;28;19921;-86
2023/01/27 15:03:03;;;;;;;;;;;;;;;5.99;100.00;100146.38;5049297;28;19939;-81
2023/01/27 15:05:38;;;;;;;;;;;;;;;5.99;100.00;100148.16;5029507;28;19921;-83
2023/01/27 15:08:03;;;;;;;;;;;;;;;5.98;100.00;100152.56;5035885;28;19927;-84
2023/01/27 15:10:30;;;;;;;;;;;;;;;5.99;100.00;100151.66;5050377;28;19925;-85
2023/01/27 15:13:07;;;;;;;;;;;;;;;6.00;100.00;100153.41;5051553;28;19928;-85
2023/01/27 15:15:32;;;;;;;;;;;;;;;6.00;100.00;100158.66;5033148;28;20007;-85
2023/01/27 15:18:33;;;;;;;;;;;;;;;6.03;100.00;100159.50;5051613;28;20668;-82
2023/01/27 15:20:59;;;;;;;;;;;;;;;6.00;100.00;100171.81;4965418;28;20412;-83
2023/01/27 15:23:24;;;;;;;;;;;;;;;6.02;100.00;100171.78;5034906;28;20019;-82
2023/01/27 15:25:51;;;;;;;;;;;;;;;6.02;100.00;100174.41;5050601;28;20004;-84
2023/01/27 15:28:19;;;;;;;;;;;;;;;6.03;100.00;100180.53;5050292;28;19921;-84
2023/01/27 15:31:03;;;;;;;;;;;;;;;6.02;100.00;100189.34;5051769;28;19913;-84
2023/01/27 15:33:46;;;;;;;;;;;;;;;6.04;100.00;100198.06;5051108;28;19928;-82
2023/01/27 15:36:16;;;;;;;;;;;;;;;6.03;100.00;100186.69;5033188;28;19913;-84
2023/01/27 15:38:41;;;;;;;;;;;;;;;6.04;100.00;100185.78;5051317;28;20387;-84
2023/01/27 15:41:14;;;;;;;;;;;;;;;6.06;100.00;100188.38;5051062;28;19999;-82
2023/01/27 15:43:59;;;;;;;;;;;;;;;6.05;100.00;100191.88;5036613;28;19917;-83
2023/01/27 15:46:30;;;;;;;;;;;;;;;6.06;100.00;100193.63;5054375;28;19920;-83
2023/01/27 15:48:59;;;;;;;;;;;;;;;6.08;100.00;100194.47;5055841;28;19923;-84
2023/01/27 15:51:25;;;;;;;;;;;;;;;6.08;100.00;100200.63;5035719;28;19927;-85
2023/01/27 15:54:04;;;;;;;;;;;;;;;6.09;100.00;100197.06;5054583;28;20356;-87
2023/01/27 15:56:49;;;;;;;;;;;;;;;6.09;100.00;100197.06;5054602;28;19925;-82
2023/01/27 15:59:16;;;;;;;;;;;;;;;6.08;100.00;100190.09;5054557;28;20386;-83
2023/01/27 16:01:42;;;;;;;;;;;;;;;6.10;100.00;100197.97;5055675;28;19917;-85
2023/01/27 16:04:11;;;;;;;;;;;;;;;6.10;100.00;100206.72;5054326;28;19924;-84
2023/01/27 16:06:44;;;;;;;;;;;;;;;6.12;100.00;100206.69;5052608;28;20375;-82
2023/01/27 16:09:15;;;;;;;;;;;;;;;6.10;100.00;100214.59;5054502;28;19920;-83
2023/01/27 16:11:50;;;;;;;;;;;;;;;6.10;100.00;100211.97;5054478;28;19917;-86
2023/01/27 16:14:16;;;;;;;;;;;;;;;6.11;100.00;100218.97;5033675;28;19921;-85
2023/01/27 16:16:44;;;;;;;;;;;;;;;6.11;100.00;100216.34;5055192;28;19920;-85
2023/01/27 16:19:09;;;;;;;;;;;;;;;6.13;100.00;100224.22;5055249;28;20363;-85
2023/01/27 16:21:53;;;;;;;;;;;;;;;6.12;100.00;100219.84;5054253;28;19919;-87
2023/01/27 16:24:23;;;;;;;;;;;;;;;6.14;100.00;100225.94;5053489;28;19925;-83
2023/01/27 16:26:51;;;;;;;;;;;;;;;6.12;100.00;100222.47;5053198;28;19931;-83
2023/01/27 16:29:25;;;;;;;;;;;;;;;6.13;100.00;100225.06;5053753;28;19921;-87
2023/01/27 16:32:01;;;;;;;;;;;;;;;6.13;100.00;100225.06;5054003;28;20386;-85
2023/01/27 16:34:32;;;;;;;;;;;;;;;6.15;100.00;100214.53;5035858;28;19916;-87
2023/01/27 16:37:14;;;;;;;;;;;;;;;6.14;100.00;100223.31;5055231;28;19913;-84
2023/01/27 16:39:45;;;;;;;;;;;;;;;5.84;100.00;100220.28;5037093;28;20367;-86
2023/01/27 16:42:30;;;;;;;;;;;;;;;4.74;100.00;100226.22;5036951;28;20256;-85
2023/01/27 16:44:57;;;;;;;;;;;;;;;4.24;100.00;100227.63;5054965;28;19917;-86
2023/01/27 16:47:28;;;;;;;;;;;;;;;4.09;100.00;100240.00;5054656;28;20410;-87
2023/01/27 16:50:03;;;;;;;;;;;;;;;3.98;100.00;100236.63;5035447;28;19917;-85
2023/01/27 16:52:32;;;;;;;;;;;;;;;3.85;100.00;100233.22;5054233;28;19920;-87
2023/01/27 16:54:59;;;;;;;;;;;;;;;3.76;100.00;100244.63;5054053;28;19948;-86
2023/01/27 16:57:27;;;;;;;;;;;;;;;3.67;100.00;100246.47;5054503;28;19923;-86
2023/01/27 16:59:53;;;;;;;;;;;;;;;3.56;100.00;100249.19;5054611;28;19917;-86
2023/01/27 17:02:20;;;;;;;;;;;;;;;3.52;100.00;100250.94;5054528;28;19921;-84
2023/01/27 17:04:57;;;;;;;;;;;;;;;3.43;100.00;100254.50;5052971;28;20047;-85
2023/01/27 17:07:23;;;;;;;;;;;;;;;3.40;100.00;100262.38;5036168;28;20384;-85
2023/01/27 17:09:58;;;;;;;;;;;;;;;3.34;100.00;100264.16;5054342;28;19916;-85
2023/01/27 17:12:32;;;;;;;;;;;;;;;3.26;100.00;100270.31;5053467;28;20182;-87
2023/01/27 17:14:59;;;;;;;;;;;;;;;3.25;100.00;100270.31;5054168;28;19975;-85
2023/01/27 17:17:26;;;;;;;;;;;;;;;3.16;100.00;100262.50;5054003;28;19917;-86
2023/01/27 17:19:54;;;;;;;;;;;;;;;3.17;100.00;100272.09;5052985;28;19921;-85
2023/01/27 17:22:39;;;;;;;;;;;;;;;3.11;100.00;100272.97;5036081;28;19952;-85
2023/01/27 17:25:11;;;;;;;;;;;;;;;3.07;100.00;100276.50;5054147;28;20007;-86
2023/01/27 17:30:25;;;;;;;;;;;;;;;3.04;100.00;100273.91;5003137;28;19940;-86
2023/01/27 17:32:53;;;;;;;;;;;;;;;2.98;100.00;100277.41;5053921;28;20271;-83
2023/01/27 17:35:18;;;;;;;;;;;;;;;3.00;100.00;100283.53;5052379;28;19920;-85
2023/01/27 17:37:44;;;;;;;;;;;;;;;2.97;100.00;100287.88;5053762;28;20265;-84
2023/01/27 17:40:13;;;;;;;;;;;;;;;2.98;100.00;100289.63;5053578;28;20203;-85
2023/01/27 17:42:38;;;;;;;;;;;;;;;2.90;100.00;100287.03;5053564;28;19925;-85
2023/01/27 17:45:22;;;;;;;;;;;;;;;2.91;100.00;100288.78;5053653;28;19920;-86
2023/01/27 17:47:48;;;;;;;;;;;;;;;2.83;100.00;100290.56;5035645;28;20323;-86
2023/01/27 17:50:15;;;;;;;;;;;;;;;2.87;100.00;100302.75;5052590;28;19916;-84
2023/01/27 17:52:50;;;;;;;;;;;;;;;2.84;100.00;100298.41;5031965;28;20328;-88
2023/01/27 17:55:19;;;;;;;;;;;;;;;2.77;100.00;100307.16;5028590;23;19972;-83
2023/01/27 17:57:46;;;;;;;;;;;;;;;2.76;100.00;100304.53;4994632;28;19984;-83
2023/01/27 18:00:32;;;;;;;;;;;;;;;2.76;100.00;100309.75;5010519;28;19933;-88
2023/01/27 18:03:03;;;;;;;;;;;;;;;2.71;100.00;100302.81;5013388;28;19972;-87
2023/01/27 18:05:34;;;;;;;;;;;;;;;2.71;100.00;100313.28;5011142;28;19929;-88
2023/01/27 18:08:00;;;;;;;;;;;;;;;2.70;100.00;100311.53;5013133;28;19976;-85
2023/01/27 18:10:25;;;;;;;;;;;;;;;2.71;100.00;100313.28;5013455;28;19925;-86
2023/01/27 18:12:51;;;;;;;;;;;;;;;2.68;100.00;100323.75;5013630;28;19922;-85
2023/01/27 18:15:35;;;;;;;;;;;;;;;2.69;100.00;100320.25;5013649;28;20299;-85
2023/01/27 18:18:02;;;;;;;;;;;;;;;2.70;100.00;100321.13;5013572;28;20011;-86
2023/01/27 18:20:31;;;;;;;;;;;;;;;2.68;100.00;100323.75;5010251;28;19929;-86
2023/01/27 18:23:06;;;;;;;;;;;;;;;2.62;100.00;100325.53;4980916;28;20304;-88
2023/01/27 18:25:31;;;;;;;;;;;;;;;2.69;100.00;100329.84;4993963;28;19961;-83
2023/01/27 18:28:01;;;;;;;;;;;;;;;2.67;100.00;100335.09;5013280;28;19918;-86
2023/01/27 18:30:26;;;;;;;;;;;;;;;2.65;100.00;100331.63;4995474;28;19917;-83
2023/01/27 18:32:58;;;;;;;;;;;;;;;2.67;100.00;100340.31;5005400;28;19924;-87
2023/01/27 18:35:28;;;;;;;;;;;;;;;2.63;100.00;100336.00;5012106;28;20392;-83
2023/01/27 18:38:00;;;;;;;;;;;;;;;2.62;100.00;100334.22;5013264;28;19921;-86
2023/01/27 18:40:33;;;;;;;;;;;;;;;2.62;100.00;100334.22;4995545;28;19918;-83
2023/01/27 18:42:59;;;;;;;;;;;;;;;2.60;100.00;100330.75;5013142;28;19918;-84
2023/01/27 18:45:26;;;;;;;;;;;;;;;2.60;100.00;100325.53;5011012;28;19928;-87
2023/01/27 18:47:58;;;;;;;;;;;;;;;2.59;100.00;100334.22;5005652;28;20016;-85
2023/01/27 18:50:25;;;;;;;;;;;;;;;2.59;100.00;100330.75;5010305;28;19921;-85
2023/01/27 18:53:03;;;;;;;;;;;;;;;2.57;100.00;100328.16;5009647;28;19925;-86
2023/01/27 18:55:36;;;;;;;;;;;;;;;2.53;100.00;100329.00;4968964;28;19922;-86
2023/01/27 18:58:10;;;;;;;;;;;;;;;2.58;100.00;100337.72;4954282;28;20358;-86
2023/01/27 19:00:44;;;;;;;;;;;;;;;2.56;100.00;100334.25;4955758;28;19918;-86
2023/01/27 19:03:20;;;;;;;;;;;;;;;2.51;100.00;100336.84;4954586;28;19922;-84
2023/01/27 19:05:46;;;;;;;;;;;;;;;2.52;100.00;100329.88;4989803;28;19925;-88
2023/01/27 19:08:28;;;;;;;;;;;;;;;2.48;100.00;100338.63;4989967;28;19922;-90
2023/01/27 19:10:56;;;;;;;;;;;;;;;2.51;100.00;100338.63;4974242;28;20261;-84
2023/01/27 19:13:22;;;;;;;;;;;;;;;2.48;100.00;100331.63;4989412;28;19930;-88
2023/01/27 19:15:54;;;;;;;;;;;;;;;2.51;100.00;100336.00;5006354;28;20376;-84
2023/01/27 19:18:28;;;;;;;;;;;;;;;2.48;100.00;100338.63;4990957;28;20021;-83
2023/01/27 19:20:53;;;;;;;;;;;;;;;2.47;100.00;100335.13;5028284;28;19917;-84
2023/01/27 19:23:19;;;;;;;;;;;;;;;2.48;100.00;100341.22;5034280;28;19968;-83
2023/01/27 19:25:51;;;;;;;;;;;;;;;2.51;100.00;100336.00;5034949;28;20011;-85
2023/01/27 19:28:25;;;;;;;;;;;;;;;2.45;100.00;100334.25;5035404;28;19921;-84
2023/01/27 19:30:51;;;;;;;;;;;;;;;2.44;100.00;100334.25;5036142;28;20435;-85
2023/01/27 19:33:17;;;;;;;;;;;;;;;2.50;100.00;100329.00;5018299;28;19917;-83
2023/01/27 19:36:03;;;;;;;;;;;;;;;2.43;100.00;100342.97;5033434;28;19925;-86
2023/01/27 19:38:28;;;;;;;;;;;;;;;2.45;100.00;100341.22;5034305;28;19960;-85
2023/01/27 19:40:54;;;;;;;;;;;;;;;2.40;100.00;100332.53;5033011;28;19960;-84
2023/01/27 19:43:19;;;;;;;;;;;;;;;2.40;100.00;100346.47;5035818;28;19921;-83
2023/01/27 19:45:46;;;;;;;;;;;;;;;2.43;100.00;100342.97;5034845;28;20317;-83
2023/01/27 19:48:15;;;;;;;;;;;;;;;2.41;100.00;100345.59;5035035;28;19931;-85
2023/01/27 19:50:41;;;;;;;;;;;;;;;2.42;100.00;100339.47;5034561;28;19917;-81
2023/01/27 19:53:07;;;;;;;;;;;;;;;2.41;100.00;100334.25;5035757;28;20418;-82
2023/01/27 19:55:32;;;;;;;;;;;;;;;2.40;100.00;100350.84;5033223;28;19932;-83
2023/01/27 19:58:02;;;;;;;;;;;;;;;2.72;100.00;100354.25;5034242;28;19936;-85
2023/01/27 20:00:28;;;;;;;;;;;;;;;2.95;100.00;100348.09;5015843;28;20384;-81
2023/01/27 20:02:54;;;;;;;;;;;;;;;3.35;100.00;100353.22;5031458;28;19921;-86
2023/01/27 20:05:21;;;;;;;;;;;;;;;3.70;100.00;100361.78;5032020;28;21570;-84
2023/01/27 20:10:41;;;;;;;;;;;;;;;4.09;100.00;100352.78;4992275;28;19922;-81
2023/01/27 20:13:22;;;;;;;;;;;;;;;;;;;;;
2023/01/27 20:21:52;;;;;;;;;;;;;;;4.48;100.00;100353.38;4992923;28;19963;-88
2023/01/27 20:24:37;;;;;;;;;;;;;;;4.53;100.00;100362.06;5035281;28;19917;-84
2023/01/27 20:27:08;;;;;;;;;;;;;;;4.61;100.00;100348.88;5015715;28;20375;-85
2023/01/27 20:29:52;;;;;;;;;;;;;;;4.65;100.00;100347.94;5033029;28;20326;-87
2023/01/27 20:35:28;;;;;;;;;;;;;;;4.76;100.00;100363.59;5005053;28;19921;-82
2023/01/27 20:37:59;;;;;;;;;;;;;;;4.82;100.00;100363.53;5034895;28;19991;-91
2023/01/27 20:40:25;;;;;;;;;;;;;;;4.83;100.00;100367.03;5034353;28;20016;-85
2023/01/27 20:42:51;;;;;;;;;;;;;;;4.87;100.00;100358.25;5034764;28;20040;-85
2023/01/27 20:45:20;;;;;;;;;;;;;;;4.90;100.00;100364.31;5034405;28;19933;-82
2023/01/27 20:47:49;;;;;;;;;;;;;;;4.95;100.00;100360.78;5034570;28;19963;-88
2023/01/27 20:50:14;;;;;;;;;;;;;;;4.97;100.00;100365.13;5014909;28;20012;-82
2023/01/27 20:52:43;;;;;;;;;;;;;;;5.01;100.00;100360.69;5016698;28;20400;-86
2023/01/27 20:55:08;;;;;;;;;;;;;;;5.03;100.00;100358.94;5034283;28;19921;-82
2023/01/27 20:57:33;;;;;;;;;;;;;;;5.06;100.00;100358.91;5032969;28;19921;-84
2023/01/27 21:00:11;;;;;;;;;;;;;;;5.08;100.00;100362.38;5033320;28;20003;-90
2023/01/27 21:02:39;;;;;;;;;;;;;;;5.11;100.00;100364.97;5035267;28;19917;-82
2023/01/27 21:05:04;;;;;;;;;;;;;;;5.15;100.00;100366.66;5032917;28;20094;-81
2023/01/27 21:07:30;;;;;;;;;;;;;;;5.16;100.00;100363.16;5023860;28;20012;-80
2023/01/27 21:09:58;;;;;;;;;;;;;;;5.19;100.00;100357.00;5032512;28;19928;-82
2023/01/27 21:12:24;;;;;;;;;;;;;;;5.21;100.00;100366.59;5016357;28;19928;-83
2023/01/27 21:14:49;;;;;;;;;;;;;;;5.23;100.00;100362.22;5032304;28;19921;-82
2023/01/27 21:17:16;;;;;;;;;;;;;;;5.26;100.00;100362.19;5032429;28;19978;-83
2023/01/27 21:19:43;;;;;;;;;;;;;;;5.27;100.00;100363.91;5014857;28;19932;-86